Time;durP1;ratioP1;P1;durP2;ratioP2;P2;SDS_P1;SDS_P2;PMS_P1;PMS_P2;Temp;Humidity;BMP_temperature;BMP_pressure;BME280_temperature;BME280_humidity;BME280_pressure;Samples;Min_cycle;Max_cycle;Signal;HPM_P1;HPM_P2
2022/09/12 00:01:50;;;;;;;22.07;11.83;;;;;;;13.74;100.00;100008.47;1737859;81;21050;-75
2022/09/12 00:04:18;;;;;;;20.17;11.65;;;;;;;13.83;100.00;100009.17;1738827;82;21030;-74
2022/09/12 00:06:47;;;;;;;18.40;11.12;;;;;;;13.89;100.00;100009.21;1737709;82;21554;-74
2022/09/12 00:09:15;;;;;;;20.55;10.95;;;;;;;13.99;100.00;100006.37;1738114;81;21035;-75
2022/09/12 00:11:45;;;;;;;18.42;10.70;;;;;;;13.98;100.00;100006.85;1738634;81;21035;-74
2022/09/12 00:14:17;;;;;;;16.25;9.73;;;;;;;13.95;100.00;100014.84;1736006;82;21027;-75
2022/09/12 00:16:45;;;;;;;19.90;10.45;;;;;;;13.92;100.00;100017.61;1738055;81;21003;-75
2022/09/12 00:19:12;;;;;;;19.73;10.78;;;;;;;13.91;100.00;100021.59;1738894;82;21007;-75
2022/09/12 00:21:40;;;;;;;15.55;9.85;;;;;;;13.83;100.00;100021.64;1737592;81;21046;-76
2022/09/12 00:24:08;;;;;;;17.15;10.00;;;;;;;13.88;100.00;100023.09;1735408;82;21054;-74
2022/09/12 00:26:35;;;;;;;17.30;10.25;;;;;;;13.95;100.00;100021.75;1738592;82;21053;-75
2022/09/12 00:29:03;;;;;;;16.60;9.33;;;;;;;13.95;100.00;100017.42;1736980;82;21051;-75
2022/09/12 00:31:30;;;;;;;17.37;10.32;;;;;;;13.99;100.00;100010.26;1737175;82;21023;-75
2022/09/12 00:34:00;;;;;;;17.07;9.13;;;;;;;14.01;100.00;100014.90;1738809;81;21081;-75
2022/09/12 00:36:29;;;;;;;17.40;10.05;;;;;;;13.95;100.00;100016.57;1738753;82;20995;-76
2022/09/12 00:38:56;;;;;;;22.80;10.43;;;;;;;13.85;100.00;100007.75;1737173;81;21007;-75
2022/09/12 00:41:28;;;;;;;20.37;10.60;;;;;;;13.88;100.00;100012.74;1738221;82;21134;-75
2022/09/12 00:44:04;;;;;;;20.77;10.32;;;;;;;13.93;100.00;100009.38;1736351;82;21027;-76
2022/09/12 00:46:42;;;;;;;16.85;9.38;;;;;;;13.98;100.00;100008.14;1738690;82;21050;-76
2022/09/12 00:49:21;;;;;;;23.45;10.08;;;;;;;14.10;100.00;100010.39;1734324;82;21015;-76
2022/09/12 00:52:05;;;;;;;18.90;10.05;;;;;;;14.23;100.00;100010.38;1734501;82;21097;-76
2022/09/12 00:54:55;;;;;;;15.63;9.95;;;;;;;14.35;100.00;100013.44;1734033;81;21065;-76
2022/09/12 00:57:27;;;;;;;15.23;9.85;;;;;;;14.27;100.00;100002.77;1738124;82;21042;-76
2022/09/12 01:00:03;;;;;;;20.35;10.38;;;;;;;14.42;100.00;100007.41;1737456;82;21035;-75
2022/09/12 01:02:31;;;;;;;20.30;10.45;;;;;;;14.49;100.00;99998.73;1734168;82;21102;-76
2022/09/12 01:04:57;;;;;;;19.30;10.08;;;;;;;14.50;100.00;99996.52;1734608;82;21562;-75
2022/09/12 01:07:25;;;;;;;18.37;10.50;;;;;;;14.51;100.00;99996.87;1717492;82;21525;-76
2022/09/12 01:09:52;;;;;;;15.70;9.83;;;;;;;14.49;100.00;99989.20;1741643;82;21070;-75
2022/09/12 01:12:20;;;;;;;18.75;10.30;;;;;;;14.56;100.00;99994.36;1735463;81;21015;-75
2022/09/12 01:14:47;;;;;;;17.82;10.28;;;;;;;14.65;100.00;99994.66;1735901;81;21033;-75
2022/09/12 01:17:15;;;;;;;18.87;9.43;;;;;;;14.70;100.00;99993.86;1737814;82;21071;-75
2022/09/12 01:20:21;;;;;;;16.05;9.83;;;;;;;14.77;100.00;100000.28;1736140;82;21066;-75
2022/09/12 01:23:21;;;;;;;16.80;9.80;;;;;;;14.76;100.00;99996.02;1734143;82;21012;-75
2022/09/12 01:26:15;;;;;;;17.65;10.30;;;;;;;14.78;100.00;99992.85;1737478;82;21031;-76
2022/09/12 01:29:23;;;;;;;19.02;10.32;;;;;;;14.80;100.00;99995.72;1735009;82;21039;-76
2022/09/12 01:31:56;;;;;;;23.15;10.78;;;;;;;14.70;100.00;99997.74;1719818;81;21058;-75
2022/09/12 01:34:45;;;;;;;22.00;10.60;;;;;;;14.71;100.00;99991.64;1735720;82;21054;-75
2022/09/12 01:37:39;;;;;;;18.12;10.30;;;;;;;14.69;100.00;99984.45;1734569;82;21075;-76
2022/09/12 01:40:30;;;;;;;15.93;9.40;;;;;;;14.57;100.00;99976.58;1737300;82;21019;-74
2022/09/12 01:43:21;;;;;;;17.48;10.00;;;;;;;14.60;100.00;99978.15;1735575;81;21530;-75
2022/09/12 01:46:10;;;;;;;26.75;9.93;;;;;;;14.58;100.00;99976.95;1737281;81;21098;-75
2022/09/12 01:48:49;;;;;;;25.52;10.55;;;;;;;14.51;100.00;99979.56;1734058;83;21043;-75
2022/09/12 01:51:34;;;;;;;21.25;10.68;;;;;;;14.34;100.00;99979.91;1737256;81;21043;-74
2022/09/12 01:54:21;;;;;;;19.80;10.32;;;;;;;14.34;100.00;99976.02;1738832;82;21066;-74
2022/09/12 01:56:54;;;;;;;15.53;9.43;;;;;;;14.40;100.00;99984.19;1738506;82;21035;-75
2022/09/12 01:59:25;;;;;;;18.70;10.65;;;;;;;14.34;100.00;99985.09;1739137;82;21038;-75
2022/09/12 02:02:09;;;;;;;15.70;10.78;;;;;;;14.23;100.00;99982.77;1735197;81;21133;-73
2022/09/12 02:04:47;;;;;;;;;;;;;;;14.26;100.00;99979.13;1732032;82;21074;-75
2022/09/12 02:07:22;;;;;;;18.90;10.50;;;;;;;14.24;100.00;99974.52;1738779;82;20111;-75
2022/09/12 02:09:56;;;;;;;20.72;10.23;;;;;;;14.16;100.00;99972.45;1735556;81;21054;-74
2022/09/12 02:12:28;;;;;;;17.23;10.40;;;;;;;14.20;100.00;99973.89;1734268;82;21121;-75
2022/09/12 02:15:01;;;;;;;25.70;10.82;;;;;;;14.19;100.00;99968.81;1737089;82;21036;-76
2022/09/12 02:17:31;;;;;;;19.57;11.10;;;;;;;14.16;100.00;99959.50;1737977;82;21059;-75
2022/09/12 02:20:15;;;;;;;20.52;10.43;;;;;;;14.23;100.00;99967.67;1738337;82;21112;-75
2022/09/12 02:22:44;;;;;;;19.90;11.10;;;;;;;14.22;100.00;99964.27;1738763;82;21500;-75
2022/09/12 02:25:16;;;;;;;15.95;10.30;;;;;;;14.37;100.00;99955.91;1737985;81;21148;-75
2022/09/12 02:27:52;;;;;;;19.32;11.03;;;;;;;14.47;100.00;99958.69;1737604;82;21078;-75
2022/09/12 02:30:20;;;;;;;16.85;10.58;;;;;;;14.49;100.00;99958.59;1736909;82;21590;-75
2022/09/12 02:32:58;;;;;;;17.42;10.68;;;;;;;14.41;100.00;99970.30;1734464;82;21062;-75
2022/09/12 02:35:39;;;;;;;23.42;10.88;;;;;;;14.32;100.00;99963.66;1734308;82;21023;-75
2022/09/12 02:38:23;;;;;;;17.40;10.85;;;;;;;14.37;100.00;99959.79;1736436;82;21577;-75
2022/09/12 02:40:50;;;;;;;17.12;10.23;;;;;;;14.43;100.00;99960.66;1736736;82;21058;-75
2022/09/12 02:43:17;;;;;;;14.90;8.85;;;;;;;14.52;100.00;99966.17;1738570;82;21034;-75
2022/09/12 02:45:45;;;;;;;17.20;10.23;;;;;;;14.59;100.00;99964.82;1737844;82;21040;-75
2022/09/12 02:48:30;;;;;;;16.75;9.55;;;;;;;14.65;100.00;99964.87;1737060;81;21578;-75
2022/09/12 02:50:58;;;;;;;17.60;10.00;;;;;;;14.69;100.00;99971.49;1735970;81;21042;-75
2022/09/12 02:53:27;;;;;;;16.20;9.88;;;;;;;14.73;100.00;99967.75;1738156;82;22156;-75
2022/09/12 02:55:54;;;;;;;18.75;10.05;;;;;;;14.80;100.00;99968.52;1719407;82;21516;-75
2022/09/12 02:58:26;;;;;;;19.52;10.23;;;;;;;14.87;100.00;99971.49;1739824;82;21035;-74
2022/09/12 03:01:35;;;;;;;20.20;9.80;;;;;;;14.92;100.00;99975.05;1735006;81;21051;-75
2022/09/12 03:04:27;;;;;;;16.75;10.88;;;;;;;14.97;100.00;99967.78;1733667;82;21020;-75
2022/09/12 03:07:02;;;;;;;22.05;10.82;;;;;;;14.96;100.00;99959.19;1736937;82;21023;-75
2022/09/12 03:09:50;;;;;;;18.70;10.38;;;;;;;15.01;100.00;99956.27;1738546;82;21038;-75
2022/09/12 03:12:32;;;;;;;18.85;10.55;;;;;;;15.12;100.00;99955.48;1738583;82;21594;-75
2022/09/12 03:15:24;;;;;;;18.55;10.45;;;;;;;15.16;100.00;99955.63;1719714;83;21038;-75
2022/09/12 03:18:38;;;;;;;22.73;10.40;;;;;;;15.21;100.00;99963.91;1738070;81;21548;-74
2022/09/12 03:21:13;;;;;;;16.85;10.15;;;;;;;15.26;100.00;99964.87;1737866;82;21015;-74
2022/09/12 03:23:51;;;;;;;20.85;9.85;;;;;;;15.39;100.00;99960.45;1736202;82;20999;-74
2022/09/12 03:26:27;;;;;;;18.67;9.83;;;;;;;15.40;100.00;99953.84;1738515;82;21048;-75
2022/09/12 03:28:55;;;;;;;17.60;9.35;;;;;;;15.42;100.00;99966.70;1737750;82;21107;-75
2022/09/12 03:31:22;;;;;;;17.85;9.70;;;;;;;15.36;100.00;99960.66;1734639;82;21093;-74
2022/09/12 03:33:49;;;;;;;17.87;9.58;;;;;;;15.39;100.00;99956.56;1735854;82;21042;-74
2022/09/12 03:36:21;;;;;;;16.00;9.90;;;;;;;15.43;100.00;99964.48;1734850;82;21546;-74
2022/09/12 03:38:48;;;;;;;18.85;9.88;;;;;;;15.58;100.00;99968.52;1734364;81;21108;-75
2022/09/12 03:41:16;;;;;;;15.90;10.00;;;;;;;15.69;100.00;99969.02;1736806;82;21067;-75
2022/09/12 03:43:44;;;;;;;19.27;10.15;;;;;;;15.68;100.00;99962.19;1734948;82;21222;-75
2022/09/12 03:46:12;;;;;;;17.90;9.85;;;;;;;15.83;100.00;99960.24;1736979;82;21070;-75
2022/09/12 03:48:40;;;;;;;17.37;9.55;;;;;;;15.95;100.00;99959.80;1738448;82;21046;-75
2022/09/12 03:51:10;;;;;;;17.73;9.40;;;;;;;16.07;100.00;99960.66;1736926;81;21543;-75
2022/09/12 03:53:37;;;;;;;17.50;9.03;;;;;;;16.23;100.00;99953.34;1736004;81;21550;-74
2022/09/12 03:56:10;;;;;;;16.93;9.30;;;;;;;16.31;100.00;99948.38;1737537;82;21046;-75
2022/09/12 03:58:38;;;;;;;14.80;9.05;;;;;;;16.55;100.00;99949.55;1731382;81;21071;-75
2022/09/12 04:01:12;;;;;;;14.25;8.65;;;;;;;16.73;100.00;99942.58;1738659;81;21526;-75
2022/09/12 04:03:44;;;;;;;21.40;9.10;;;;;;;16.84;100.00;99942.56;1738835;82;21054;-75
2022/09/12 04:06:14;;;;;;;20.20;8.63;;;;;;;16.87;100.00;99942.34;1734254;82;21024;-74
2022/09/12 04:08:43;;;;;;;13.90;8.55;;;;;;;16.90;100.00;99945.16;1738228;82;21023;-75
2022/09/12 04:11:14;;;;;;;17.12;8.95;;;;;;;17.06;100.00;99961.67;1738344;82;21101;-74
2022/09/12 04:13:44;;;;;;;19.15;9.60;;;;;;;17.06;100.00;99959.06;1736549;82;21014;-74
2022/09/12 04:16:12;;;;;;;15.38;9.58;;;;;;;17.12;100.00;99955.97;1735779;82;21018;-74
2022/09/12 04:18:39;;;;;;;18.17;9.78;;;;;;;17.19;100.00;99955.81;1738232;82;21566;-75
2022/09/12 04:21:13;;;;;;;15.58;10.23;;;;;;;17.27;100.00;99961.70;1735549;82;21085;-75
2022/09/12 04:23:40;;;;;;;16.15;10.15;;;;;;;17.13;100.00;99962.36;1737071;82;21035;-74
2022/09/12 04:26:08;;;;;;;18.10;10.65;;;;;;;16.96;100.00;99967.59;1736408;81;21011;-75
2022/09/12 04:28:37;;;;;;;17.85;9.80;;;;;;;17.08;100.00;99974.07;1738649;82;21050;-76
2022/09/12 04:31:08;;;;;;;21.60;10.55;;;;;;;17.01;100.00;99981.52;1735437;82;21093;-75
2022/09/12 04:33:36;;;;;;;17.07;10.08;;;;;;;17.00;100.00;99984.59;1737223;82;21055;-75
2022/09/12 04:36:06;;;;;;;17.50;10.40;;;;;;;17.07;100.00;99977.61;1735456;82;21054;-75
2022/09/12 04:38:35;;;;;;;17.35;10.53;;;;;;;17.14;100.00;99972.28;1737791;82;21047;-75
2022/09/12 04:41:19;;;;;;;15.70;10.35;;;;;;;17.19;100.00;99964.47;1734480;82;21054;-75
2022/09/12 04:43:49;;;;;;;15.90;10.05;;;;;;;17.37;100.00;99960.01;1738731;82;21031;-75
2022/09/12 04:46:19;;;;;;;19.02;10.08;;;;;;;17.50;100.00;99960.67;1737797;81;21511;-75
2022/09/12 04:48:47;;;;;;;15.75;9.50;;;;;;;17.61;100.00;99961.08;1736202;81;21121;-76
2022/09/12 04:51:19;;;;;;;19.05;10.30;;;;;;;17.85;100.00;99967.86;1734212;82;21534;-75
2022/09/12 04:53:51;;;;;;;17.95;9.93;;;;;;;17.97;100.00;99959.84;1736582;82;21059;-75
2022/09/12 04:56:19;;;;;;;15.20;9.73;;;;;;;18.12;100.00;99957.70;1736732;82;21086;-75
2022/09/12 04:58:47;;;;;;;20.50;10.70;;;;;;;18.26;100.00;99966.14;1738875;82;21014;-74
2022/09/12 05:01:17;;;;;;;18.87;10.65;;;;;;;18.18;100.00;99970.70;1736956;82;21058;-74
2022/09/12 05:03:47;;;;;;;17.07;10.43;;;;;;;18.06;100.00;99972.55;1737708;81;21000;-74
2022/09/12 05:06:21;;;;;;;17.45;10.28;;;;;;;18.40;100.00;99969.70;1737019;82;21066;-74
2022/09/12 05:08:50;;;;;;;16.37;9.88;;;;;;;18.40;100.00;99975.73;1738034;82;21030;-74
2022/09/12 05:11:22;;;;;;;16.70;10.23;;;;;;;18.20;100.00;99980.03;1734381;81;21051;-74
2022/09/12 05:13:50;;;;;;;21.35;10.25;;;;;;;18.28;100.00;99981.17;1736393;82;21558;-75
2022/09/12 05:16:19;;;;;;;21.85;9.50;;;;;;;18.13;100.00;99985.91;1738534;81;21065;-74
2022/09/12 05:18:47;;;;;;;18.07;10.05;;;;;;;17.97;100.00;99983.76;1734795;81;21070;-74
2022/09/12 05:21:19;;;;;;;17.25;9.68;;;;;;;17.89;100.00;99984.88;1736754;82;21054;-75
2022/09/12 05:23:49;;;;;;;13.22;9.05;;;;;;;17.90;100.00;99976.09;1735757;82;21027;-74
2022/09/12 05:26:17;;;;;;;18.00;9.55;;;;;;;18.24;100.00;99975.88;1744862;80;21056;-75
2022/09/12 05:28:44;;;;;;;18.00;9.33;;;;;;;18.43;100.00;99973.36;1743640;82;21624;-74
2022/09/12 05:31:16;;;;;;;17.52;9.30;;;;;;;18.57;100.00;99973.45;1746000;81;20968;-74
2022/09/12 05:33:45;;;;;;;19.30;9.20;;;;;;;18.69;100.00;99971.58;1745565;81;21019;-74
2022/09/12 05:36:17;;;;;;;13.95;9.50;;;;;;;18.78;100.00;99972.09;1742331;81;21654;-74
2022/09/12 05:38:45;;;;;;;14.23;9.53;;;;;;;18.88;100.00;99974.27;1740936;81;21019;-74
2022/09/12 05:41:19;;;;;;;16.20;8.85;;;;;;;18.93;100.00;99977.77;1749288;81;20974;-74
2022/09/12 05:43:55;;;;;;;15.65;9.48;;;;;;;18.95;100.00;99987.11;1746192;81;21595;-75
2022/09/12 05:46:26;;;;;;;17.80;10.18;;;;;;;18.94;100.00;99985.47;1718323;81;20996;-74
2022/09/12 05:48:54;;;;;;;16.60;10.23;;;;;;;18.77;100.00;99979.55;1749751;81;21015;-74
2022/09/12 05:51:27;;;;;;;17.73;10.08;;;;;;;18.91;100.00;99972.69;1742028;81;20968;-75
2022/09/12 05:53:59;;;;;;;16.67;10.13;;;;;;;18.85;100.00;99965.40;1749645;81;21541;-75
2022/09/12 05:56:30;;;;;;;21.07;9.68;;;;;;;18.95;100.00;99958.91;1715537;82;21024;-74
2022/09/12 05:59:01;;;;;;;17.85;9.25;;;;;;;19.21;100.00;99956.11;1675845;84;21060;-75
2022/09/12 06:01:30;;;;;;;17.62;9.55;;;;;;;19.55;100.00;99952.27;1693040;84;21023;-74
2022/09/12 06:03:59;;;;;;;19.75;9.78;;;;;;;19.78;100.00;99954.92;1652332;85;21071;-74
2022/09/12 06:06:29;;;;;;;17.02;10.08;;;;;;;19.83;100.00;99955.83;1688601;84;21077;-74
2022/09/12 06:09:00;;;;;;;18.37;9.55;;;;;;;19.97;100.00;99958.45;1688671;83;21064;-75
2022/09/12 06:11:30;;;;;;;17.87;9.03;;;;;;;20.15;100.00;99955.92;1744895;81;21136;-74
2022/09/12 06:13:58;;;;;;;19.92;8.73;;;;;;;20.32;100.00;99951.75;1751132;81;21542;-75
2022/09/12 06:16:31;;;;;;;17.55;8.35;;;;;;;20.45;100.00;99957.95;1746608;81;21061;-74
2022/09/12 06:19:02;;;;;;;13.32;8.00;;;;;;;20.35;99.56;99961.41;1745846;81;21096;-74
2022/09/12 06:21:30;;;;;;;15.28;8.83;;;;;;;20.38;98.28;99959.02;1739360;82;21463;-74
2022/09/12 06:23:57;;;;;;;13.30;7.53;;;;;;;20.58;98.84;99964.98;1742161;81;21029;-75
2022/09/12 06:26:25;;;;;;;15.15;8.25;;;;;;;20.71;96.92;99969.39;1749362;81;21450;-75
2022/09/12 06:28:55;;;;;;;14.50;7.72;;;;;;;20.68;96.37;99967.55;1740012;81;20996;-76
2022/09/12 06:31:29;;;;;;;16.52;7.40;;;;;;;20.51;96.08;99968.64;1747789;81;21008;-74
2022/09/12 06:34:06;;;;;;;18.00;7.95;;;;;;;20.58;95.47;99972.83;1746026;81;21048;-76
2022/09/12 06:36:39;;;;;;;10.80;7.80;;;;;;;20.74;95.16;99974.81;1721705;82;21079;-75
2022/09/12 06:39:10;;;;;;;16.30;8.43;;;;;;;20.81;94.26;99978.50;1762313;81;21049;-75
2022/09/12 06:41:38;;;;;;;22.22;10.98;;;;;;;20.98;96.09;99987.34;1769022;81;21130;-74
2022/09/12 06:44:05;;;;;;;19.27;11.10;;;;;;;21.09;96.50;99997.61;1764847;81;21059;-74
2022/09/12 06:46:33;;;;;;;20.82;10.98;;;;;;;21.18;96.85;100002.42;1732153;82;21091;-74
2022/09/12 06:49:01;;;;;;;18.10;9.45;;;;;;;21.32;96.58;99992.74;1694663;84;21471;-74
2022/09/12 06:51:29;;;;;;;19.23;8.63;;;;;;;21.38;95.62;99989.52;1679317;84;20992;-75
2022/09/12 06:53:57;;;;;;;19.35;8.20;;;;;;;21.41;94.77;99991.01;1748610;81;21025;-74
2022/09/12 06:56:26;;;;;;;15.65;7.85;;;;;;;21.60;94.64;99988.27;1746334;79;20992;-76
2022/09/12 06:58:56;;;;;;;16.05;7.58;;;;;;;21.79;93.06;99992.49;1748647;81;21109;-75
2022/09/12 07:01:27;;;;;;;14.70;7.37;;;;;;;21.82;93.88;99991.38;1746192;81;21044;-73
2022/09/12 07:03:58;;;;;;;12.37;6.60;;;;;;;21.93;92.51;99989.81;1744035;81;21049;-75
2022/09/12 07:06:31;;;;;;;12.47;7.37;;;;;;;21.94;93.40;99990.65;1745379;81;21061;-75
2022/09/12 07:09:01;;;;;;;16.45;8.13;;;;;;;21.83;96.08;99989.58;1695077;83;21071;-73
2022/09/12 07:11:32;;;;;;;17.07;8.10;;;;;;;21.83;96.34;99979.09;1750009;81;21019;-74
2022/09/12 07:14:02;;;;;;;14.47;7.80;;;;;;;21.97;96.60;99980.66;1748580;81;21040;-74
2022/09/12 07:16:29;;;;;;;18.92;7.95;;;;;;;22.03;96.42;99978.41;1741279;81;21054;-74
2022/09/12 07:19:02;;;;;;;14.15;7.92;;;;;;;22.12;96.16;99985.33;1738910;81;21604;-75
2022/09/12 07:21:30;;;;;;;17.42;7.97;;;;;;;22.19;96.95;99987.67;1746196;81;21054;-74
2022/09/12 07:23:57;;;;;;;18.37;7.70;;;;;;;22.17;96.17;99987.01;1743008;81;21605;-75
2022/09/12 07:26:27;;;;;;;14.30;6.85;;;;;;;22.21;95.45;99983.91;1746285;81;20996;-74
2022/09/12 07:28:57;;;;;;;10.75;7.17;;;;;;;22.42;95.91;99981.42;1739701;81;20987;-75
2022/09/12 07:31:27;;;;;;;13.83;6.37;;;;;;;22.53;95.82;99992.95;1739389;82;21539;-74
2022/09/12 07:33:54;;;;;;;16.25;6.35;;;;;;;22.27;95.65;99992.18;1739058;82;21009;-76
2022/09/12 07:36:24;;;;;;;11.12;6.30;;;;;;;22.01;98.66;99987.73;1749764;81;21448;-75
2022/09/12 07:38:55;;;;;;;15.15;6.67;;;;;;;21.77;99.91;99989.20;1743639;81;21043;-75
2022/09/12 07:41:26;;;;;;;12.50;6.60;;;;;;;21.48;100.00;99993.91;1746330;81;21052;-74
2022/09/12 07:43:56;;;;;;;12.58;6.45;;;;;;;21.39;100.00;99995.11;1748114;81;21517;-75
2022/09/12 07:46:26;;;;;;;13.00;6.30;;;;;;;21.52;100.00;99988.20;1743675;81;21000;-73
2022/09/12 07:48:57;;;;;;;12.95;6.70;;;;;;;21.74;100.00;99996.08;1738275;82;21308;-74
2022/09/12 07:51:27;;;;;;;12.93;6.50;;;;;;;21.88;98.77;99988.16;1738308;82;21273;-75
2022/09/12 07:53:55;;;;;;;15.45;7.17;;;;;;;22.09;97.84;99985.66;1737887;82;21067;-74
2022/09/12 07:56:23;;;;;;;16.27;7.67;;;;;;;21.93;97.90;99987.19;1740357;82;21071;-75
2022/09/12 07:58:49;;;;;;;17.10;7.40;;;;;;;21.95;97.33;99973.94;1738537;82;22036;-74
2022/09/12 08:01:22;;;;;;;15.00;7.12;;;;;;;21.88;96.79;99975.52;1740422;81;21079;-74
2022/09/12 08:03:56;;;;;;;16.80;7.75;;;;;;;22.01;96.25;99975.94;1745287;81;20961;-73
2022/09/12 08:06:25;;;;;;;15.40;7.28;;;;;;;21.93;96.42;99969.34;1746885;81;22164;-74
2022/09/12 08:08:57;;;;;;;12.53;7.08;;;;;;;21.93;96.06;99974.58;1736560;82;21032;-74
2022/09/12 08:11:31;;;;;;;12.00;7.28;;;;;;;21.94;96.00;99979.67;1730705;82;21111;-74
2022/09/12 08:13:56;;;;;;;12.35;7.30;;;;;;;21.65;96.26;99982.56;1735845;82;21103;-74
2022/09/12 08:16:29;;;;;;;17.50;7.80;;;;;;;21.59;97.34;99979.25;1737006;83;21041;-75
2022/09/12 08:18:57;;;;;;;16.05;8.40;;;;;;;21.68;97.12;99978.34;1699304;84;21140;-73
2022/09/12 08:21:30;;;;;;;12.50;7.75;;;;;;;21.72;96.98;99977.06;1700372;84;21060;-74
2022/09/12 08:24:03;;;;;;;16.55;8.25;;;;;;;21.86;97.35;99978.31;1737319;82;21513;-73
2022/09/12 08:26:31;;;;;;;;;;;;;;;21.95;96.63;99970.00;1698512;82;21122;-73
2022/09/12 08:28:59;;;;;;;17.90;8.40;;;;;;;22.21;95.87;99969.98;1740440;82;20099;-74
2022/09/12 08:31:27;;;;;;;18.87;8.48;;;;;;;22.44;95.28;99970.28;1699426;84;21075;-73
2022/09/12 08:33:57;;;;;;;17.90;8.65;;;;;;;22.71;93.79;99969.25;1671128;85;21084;-75
2022/09/12 08:36:27;;;;;;;18.40;8.05;;;;;;;22.92;91.07;99962.23;1700613;84;20993;-75
2022/09/12 08:38:58;;;;;;;15.50;7.87;;;;;;;23.08;91.17;99956.72;1672453;85;21096;-73
2022/09/12 08:41:45;;;;;;;16.80;7.70;;;;;;;23.31;90.27;99945.89;1736070;82;21068;-74
2022/09/12 08:44:26;;;;;;;12.20;8.65;;;;;;;23.25;89.08;99937.35;1737257;82;21025;-74
2022/09/12 08:47:33;;;;;;;16.77;8.65;;;;;;;23.43;89.95;99938.50;1735999;82;20993;-73
2022/09/12 08:50:25;;;;;;;17.30;8.85;;;;;;;23.33;89.76;99937.85;1705623;84;21036;-74
2022/09/12 08:53:13;;;;;;;14.47;8.40;;;;;;;23.40;89.62;99928.34;1616035;88;21206;-74
2022/09/12 08:55:44;;;;;;;15.10;8.53;;;;;;;23.69;89.94;99933.06;1611317;89;21064;-73
2022/09/12 08:58:19;;;;;;;13.60;7.20;;;;;;;24.05;88.42;99931.38;1610864;89;21064;-74
2022/09/12 09:00:58;;;;;;;16.12;6.80;;;;;;;24.06;87.47;99938.25;1611288;88;21091;-73
2022/09/12 09:03:49;;;;;;;9.88;6.28;;;;;;;24.18;87.36;99926.88;1611218;88;21125;-73
2022/09/12 09:06:38;;;;;;;10.90;5.90;;;;;;;24.47;86.27;99924.12;1577123;89;21563;-73
2022/09/12 09:09:20;;;;;;;9.70;5.83;;;;;;;24.77;85.60;99919.87;1610728;89;21130;-74
2022/09/12 09:12:05;;;;;;;12.37;5.80;;;;;;;25.08;85.87;99912.41;1610807;89;21578;-73
2022/09/12 09:14:56;;;;;;;10.15;5.37;;;;;;;25.23;83.42;99910.68;1602183;88;21084;-73
2022/09/12 09:17:40;;;;;;;11.68;6.15;;;;;;;25.23;85.46;99908.55;1616228;88;21149;-73
2022/09/12 09:20:36;;;;;;;11.70;6.05;;;;;;;24.83;84.06;99915.22;1633258;87;21095;-73
2022/09/12 09:23:33;;;;;;;8.25;5.75;;;;;;;24.83;82.66;99910.46;1603568;89;21060;-74
2022/09/12 09:26:09;;;;;;;12.13;6.62;;;;;;;24.86;84.66;99904.36;1628984;87;21163;-75
2022/09/12 09:28:48;;;;;;;10.25;5.80;;;;;;;24.52;85.82;99900.28;1602386;89;21064;-74
2022/09/12 09:31:19;;;;;;;13.70;6.78;;;;;;;24.32;86.55;99897.73;1629944;87;21619;-75
2022/09/12 09:33:50;;;;;;;14.33;6.97;;;;;;;24.09;87.27;99911.64;1634132;87;21062;-73
2022/09/12 09:36:59;;;;;;;9.43;6.85;;;;;;;24.03;88.85;99918.05;1602620;89;21139;-74
2022/09/12 09:39:50;;;;;;;11.03;7.20;;;;;;;24.19;88.88;99918.83;1634719;87;21598;-73
2022/09/12 09:42:39;;;;;;;13.40;7.10;;;;;;;24.43;89.85;99917.06;1628590;87;21150;-73
2022/09/12 09:45:20;;;;;;;10.75;6.97;;;;;;;24.45;88.82;99907.69;1607976;88;21087;-73
2022/09/12 09:48:09;;;;;;;11.22;7.50;;;;;;;24.77;88.61;99917.23;1631919;87;21053;-74
2022/09/12 09:50:37;;;;;;;16.27;7.47;;;;;;;24.82;87.45;99915.39;1606814;87;21097;-73
2022/09/12 09:53:08;;;;;;;8.68;7.25;;;;;;;24.84;90.86;99905.03;1599017;89;21373;-74
2022/09/12 09:55:42;;;;;;;9.35;6.90;;;;;;;25.10;88.52;99905.15;1604369;89;21132;-73
2022/09/12 09:58:09;;;;;;;9.68;7.05;;;;;;;25.77;87.16;99902.59;1608560;88;21058;-74
2022/09/12 10:00:38;;;;;;;9.50;6.70;;;;;;;26.05;84.82;99901.95;1578661;91;21132;-74
2022/09/12 10:03:16;;;;;;;9.83;6.53;;;;;;;26.29;82.74;99894.23;1634350;88;21532;-74
2022/09/12 10:06:03;;;;;;;8.40;6.55;;;;;;;26.51;81.53;99888.50;1631025;87;21588;-74
2022/09/12 10:08:34;;;;;;;7.72;6.72;;;;;;;26.10;83.13;99892.20;1599331;88;21078;-73
2022/09/12 10:11:18;;;;;;;9.40;6.17;;;;;;;26.25;82.59;99881.61;1609239;88;21038;-73
2022/09/12 10:13:56;;;;;;;9.38;6.08;;;;;;;26.74;81.05;99882.25;1608816;89;21055;-74
2022/09/12 10:16:30;;;;;;;9.75;6.53;;;;;;;26.50;80.17;99880.28;1576444;91;21075;-73
2022/09/12 10:19:01;;;;;;;10.05;6.12;;;;;;;26.21;81.65;99877.20;1634051;86;21142;-74
2022/09/12 10:21:42;;;;;;;9.95;5.62;;;;;;;25.91;83.02;99886.48;1632295;87;21082;-75
2022/09/12 10:24:33;;;;;;;6.97;5.85;;;;;;;26.36;82.29;99883.78;1628677;88;21075;-73
2022/09/12 10:27:15;;;;;;;7.67;5.72;;;;;;;26.49;81.29;99884.42;1635557;87;21083;-74
2022/09/12 10:29:47;;;;;;;7.77;5.40;;;;;;;26.47;81.46;99885.91;1634964;87;21118;-74
2022/09/12 10:32:43;;;;;;;8.15;5.20;;;;;;;26.54;80.80;99887.30;1635095;87;21043;-73
2022/09/12 10:35:29;;;;;;;8.73;5.42;;;;;;;26.68;80.71;99894.89;1632245;87;21547;-73
2022/09/12 10:38:01;;;;;;;6.42;5.28;;;;;;;26.57;79.75;99890.90;1630870;86;21078;-73
2022/09/12 10:40:36;;;;;;;9.23;6.33;;;;;;;26.51;79.18;99885.86;1625638;86;21059;-74
2022/09/12 10:43:17;;;;;;;8.75;6.62;;;;;;;26.28;79.53;99890.48;1632094;85;21055;-75
2022/09/12 10:45:45;;;;;;;13.13;6.37;;;;;;;26.12;80.91;99896.78;1623694;87;21567;-73
2022/09/12 10:48:29;;;;;;;8.95;6.85;;;;;;;25.97;79.19;99901.58;1605871;89;21055;-74
2022/09/12 10:50:57;;;;;;;8.88;6.50;;;;;;;25.74;78.97;99902.94;1607094;88;21087;-73
2022/09/12 10:53:35;;;;;;;8.40;6.50;;;;;;;25.73;78.96;99907.06;1607232;88;21086;-74
2022/09/12 10:56:11;;;;;;;7.72;6.50;;;;;;;25.72;80.79;99909.39;1604910;89;21087;-73
2022/09/12 10:59:11;;;;;;;9.23;6.70;;;;;;;25.66;80.24;99908.30;1606312;89;21601;-74
2022/09/12 11:02:00;;;;;;;8.45;6.37;;;;;;;25.62;79.62;99914.92;1586997;89;21567;-74
2022/09/12 11:04:51;;;;;;;8.70;6.60;;;;;;;26.24;79.02;99916.41;1605724;88;21068;-74
2022/09/12 11:07:46;;;;;;;11.00;6.62;;;;;;;26.60;76.37;99911.66;1603378;89;21567;-74
2022/09/12 11:10:45;;;;;;;7.65;6.40;;;;;;;26.54;76.28;99909.73;1607395;89;21079;-74
2022/09/12 11:13:46;;;;;;;8.75;6.47;;;;;;;26.61;78.24;99905.90;1603817;89;21054;-74
2022/09/12 11:16:33;;;;;;;8.23;6.67;;;;;;;26.68;76.12;99908.90;1605744;88;21032;-74
2022/09/12 11:19:35;;;;;;;9.23;6.83;;;;;;;26.69;75.68;99911.06;1606413;88;21138;-74
2022/09/12 11:22:35;;;;;;;9.83;6.50;;;;;;;26.52;74.93;99919.19;1605781;88;21063;-73
2022/09/12 11:25:09;;;;;;;7.70;5.83;;;;;;;26.75;76.66;99929.60;1603558;89;21124;-75
2022/09/12 11:28:05;;;;;;;7.03;6.15;;;;;;;26.91;76.96;99925.91;1603452;89;21076;-74
2022/09/12 11:30:48;;;;;;;8.55;6.15;;;;;;;27.14;77.64;99925.70;1606879;88;21115;-74
2022/09/12 11:33:41;;;;;;;8.88;6.05;;;;;;;26.92;76.71;99921.44;1607376;88;21131;-73
2022/09/12 11:36:25;;;;;;;6.70;5.67;;;;;;;26.99;77.17;99898.55;1606676;89;21163;-74
2022/09/12 11:39:14;;;;;;;8.93;6.50;;;;;;;27.27;76.81;99889.84;1583525;86;21592;-75
2022/09/12 11:41:52;;;;;;;7.78;6.12;;;;;;;27.15;75.40;99882.94;1615675;85;21080;-74
2022/09/12 11:44:33;;;;;;;8.48;6.00;;;;;;;27.03;73.29;99881.80;1623095;87;21633;-75
2022/09/12 11:47:07;;;;;;;9.18;6.10;;;;;;;26.80;74.10;99866.98;1609341;87;21028;-75
2022/09/12 11:49:49;;;;;;;7.40;6.33;;;;;;;26.86;73.96;99860.94;1659901;86;21117;-73
2022/09/12 11:52:26;;;;;;;11.73;6.08;;;;;;;27.02;74.63;99861.69;1656265;86;21651;-74
2022/09/12 11:55:11;;;;;;;6.95;5.80;;;;;;;27.05;75.55;99859.49;1653631;85;21588;-73
2022/09/12 11:57:46;;;;;;;8.28;5.83;;;;;;;27.04;74.09;99861.80;1659655;85;21004;-74